createdAt,value
2019-02-08T00:01:03.734Z,80.24
2019-02-08T00:02:06.461Z,80.28
2019-02-08T00:03:09.122Z,79.97
2019-02-08T00:04:11.789Z,80.33
2019-02-08T00:05:14.630Z,80.33
2019-02-08T00:06:17.319Z,80.76
2019-02-08T00:07:20.460Z,80.33
2019-02-08T00:08:26.339Z,80.33
2019-02-08T00:09:32.050Z,80.63
2019-02-08T00:10:35.288Z,80.20
2019-02-08T00:11:38.015Z,80.39
2019-02-08T00:12:41.114Z,80.39
2019-02-08T00:13:44.374Z,80.51
2019-02-08T00:14:48.135Z,80.57
2019-02-08T00:15:50.912Z,80.46
2019-02-08T00:16:53.608Z,80.72
2019-02-08T00:17:59.226Z,80.72
2019-02-08T00:19:02.116Z,80.60
2019-02-08T00:20:05.101Z,80.73
2019-02-08T00:21:07.840Z,80.73
2019-02-08T00:22:10.520Z,80.97
2019-02-08T00:23:26.195Z,80.41
2019-02-08T00:24:24.371Z,80.67
2019-02-08T00:25:27.239Z,80.91
2019-02-08T00:26:31.588Z,80.73
2019-02-08T00:27:34.709Z,80.65
2019-02-08T00:28:37.470Z,80.50
2019-02-08T00:29:40.225Z,80.68
2019-02-08T00:30:43.008Z,80.64
2019-02-08T00:31:45.748Z,81.09
2019-02-08T00:32:48.749Z,80.89
2019-02-08T00:33:51.543Z,80.94
2019-02-08T00:35:00.024Z,81.21
2019-02-08T00:36:03.135Z,81.35
2019-02-08T00:37:06.314Z,80.76
2019-02-08T00:38:09.062Z,80.76
2019-02-08T00:39:12.439Z,80.92
2019-02-08T00:40:15.197Z,80.92
2019-02-08T00:41:17.957Z,80.99
2019-02-08T00:42:21.127Z,80.99
2019-02-08T00:43:23.794Z,81.37
2019-02-08T00:44:29.524Z,81.43
2019-02-08T00:45:35.713Z,81.43
2019-02-08T00:46:38.384Z,81.80
2019-02-08T00:47:41.067Z,81.35
2019-02-08T00:48:44.154Z,81.35
2019-02-08T00:49:47.323Z,81.99
2019-02-08T00:50:50.068Z,81.76
2019-02-08T00:51:53.427Z,81.76
2019-02-08T00:52:56.130Z,82.00
2019-02-08T00:53:58.782Z,82.00
2019-02-08T00:55:01.675Z,82.02
2019-02-08T00:56:04.401Z,82.02
2019-02-08T00:57:07.227Z,82.25
2019-02-08T00:58:12.926Z,82.05
2019-02-08T00:59:15.694Z,81.52
2019-02-08T01:00:18.433Z,82.14
2019-02-08T01:01:21.227Z,82.14
2019-02-08T01:02:23.880Z,82.53
2019-02-08T01:03:26.904Z,82.53
2019-02-08T01:04:32.585Z,82.25
2019-02-08T01:05:39.820Z,81.98
2019-02-08T01:06:42.480Z,82.31
2019-02-08T01:07:45.173Z,82.61
2019-02-08T01:08:48.257Z,82.39
2019-02-08T01:09:58.644Z,82.31
2019-02-08T01:11:01.364Z,82.45
2019-02-08T01:12:04.090Z,82.54
2019-02-08T01:13:07.213Z,82.56
2019-02-08T01:14:09.896Z,82.67
2019-02-08T01:15:12.625Z,83.09
2019-02-08T01:16:19.127Z,82.66
2019-02-08T01:17:25.246Z,82.38
2019-02-08T01:18:28.337Z,82.10
2019-02-08T01:19:30.981Z,82.10
2019-02-08T01:20:33.727Z,82.41
2019-02-08T01:21:36.444Z,82.43
2019-02-08T01:22:39.506Z,82.36
2019-02-08T01:23:42.158Z,82.58
2019-02-08T01:24:44.841Z,82.49
2019-02-08T01:25:47.489Z,82.49
2019-02-08T01:26:50.765Z,82.18
2019-02-08T01:27:53.412Z,82.60
2019-02-08T01:28:56.378Z,82.56
2019-02-08T01:30:04.263Z,82.50
2019-02-08T01:31:08.210Z,82.91
2019-02-08T01:32:12.335Z,82.91
2019-02-08T01:33:14.989Z,82.57
2019-02-08T01:34:17.628Z,82.74
2019-02-08T01:35:20.570Z,82.74
2019-02-08T01:36:23.237Z,82.59
2019-02-08T01:37:25.969Z,82.87
2019-02-08T01:38:30.883Z,82.62
2019-02-08T01:39:33.531Z,83.13
2019-02-08T01:40:36.175Z,83.13
2019-02-08T01:41:39.134Z,82.97
2019-02-08T01:42:41.902Z,82.78
2019-02-08T01:43:44.568Z,82.78
2019-02-08T01:44:47.252Z,82.67
2019-02-08T01:45:52.978Z,83.05
2019-02-08T01:46:55.629Z,82.98
2019-02-08T01:47:58.680Z,83.19
2019-02-08T01:49:01.868Z,82.65
2019-02-08T01:50:04.600Z,83.00
2019-02-08T01:51:08.547Z,83.00
2019-02-08T01:52:11.362Z,83.14
2019-02-08T01:53:14.167Z,82.67
2019-02-08T01:54:21.525Z,83.12
2019-02-08T01:55:24.625Z,83.09
2019-02-08T01:56:30.371Z,83.09
2019-02-08T01:57:33.847Z,82.88
2019-02-08T01:58:39.068Z,83.29
2019-02-08T01:59:41.773Z,82.72
2019-02-08T02:00:45.974Z,82.80
2019-02-08T02:01:48.790Z,83.34
2019-02-08T02:02:51.448Z,83.29
2019-02-08T02:03:54.567Z,83.49
2019-02-08T02:04:57.252Z,83.49
2019-02-08T02:06:02.196Z,83.31
2019-02-08T02:07:05.225Z,83.47
2019-02-08T02:08:08.869Z,83.47
2019-02-08T02:09:11.522Z,83.13
2019-02-08T02:10:14.172Z,83.13
2019-02-08T02:11:17.082Z,83.39
2019-02-08T02:12:19.822Z,83.43
2019-02-08T02:13:24.874Z,83.69
2019-02-08T02:14:27.146Z,83.78
2019-02-08T02:15:33.268Z,83.71
2019-02-08T02:16:36.353Z,83.24
2019-02-08T02:17:39.085Z,83.70
2019-02-08T02:18:41.736Z,83.70
2019-02-08T02:19:44.729Z,84.08
2019-02-08T02:20:47.422Z,83.90
2019-02-08T02:21:50.097Z,83.90
2019-02-08T02:23:25.719Z,84.46
2019-02-08T02:24:06.456Z,84.10
2019-02-08T02:25:09.110Z,84.30
2019-02-08T02:26:19.463Z,83.66
2019-02-08T02:27:24.866Z,84.47
2019-02-08T02:28:27.597Z,83.99
2019-02-08T02:29:30.758Z,84.16
2019-02-08T02:30:33.433Z,84.16
2019-02-08T02:31:36.222Z,84.25
2019-02-08T02:32:39.672Z,84.51
2019-02-08T02:33:42.833Z,84.51
2019-02-08T02:34:45.489Z,84.55
2019-02-08T02:35:48.229Z,85.03
2019-02-08T02:36:50.933Z,84.32
2019-02-08T02:37:53.753Z,84.29
2019-02-08T02:38:57.183Z,84.55
2019-02-08T02:40:00.995Z,84.94
2019-02-08T02:41:04.665Z,85.00
2019-02-08T02:42:07.332Z,85.00
2019-02-08T02:43:10.304Z,85.00
2019-02-08T02:44:14.020Z,85.81
2019-02-08T02:45:18.951Z,85.62
2019-02-08T02:46:21.666Z,85.94
2019-02-08T02:47:26.705Z,86.60
2019-02-08T02:48:29.436Z,86.17
2019-02-08T02:49:32.134Z,86.17
2019-02-08T02:50:34.904Z,86.77
2019-02-08T02:51:37.880Z,86.50
2019-02-08T02:52:40.702Z,86.60
2019-02-08T02:53:43.370Z,87.17
2019-02-08T02:54:46.081Z,87.19
2019-02-08T02:55:48.774Z,87.28
2019-02-08T02:56:51.451Z,87.24
2019-02-08T02:57:54.572Z,87.73
2019-02-08T02:58:57.264Z,87.84
2019-02-08T02:59:59.980Z,87.37
2019-02-08T03:01:02.645Z,87.83
2019-02-08T03:02:05.775Z,87.83
2019-02-08T03:03:08.477Z,87.93
2019-02-08T03:04:11.544Z,87.89
2019-02-08T03:05:17.031Z,88.54
2019-02-08T03:06:21.524Z,88.37
2019-02-08T03:07:24.663Z,88.09
2019-02-08T03:08:30.245Z,88.24
2019-02-08T03:09:34.409Z,88.37
2019-02-08T03:10:38.945Z,88.47
2019-02-08T03:11:41.709Z,88.99
2019-02-08T03:12:45.537Z,88.99
2019-02-08T03:13:51.117Z,88.59
2019-02-08T03:14:53.868Z,88.64
2019-02-08T03:15:59.032Z,88.64
2019-02-08T03:17:03.788Z,88.97
2019-02-08T03:18:10.453Z,88.45
2019-02-08T03:19:16.143Z,89.14
2019-02-08T03:20:20.227Z,88.68
2019-02-08T03:21:23.380Z,88.87
2019-02-08T03:22:26.122Z,88.87
2019-02-08T03:23:35.041Z,89.33
2019-02-08T03:24:37.768Z,89.59
2019-02-08T03:25:42.321Z,89.78
2019-02-08T03:26:45.165Z,90.45
2019-02-08T03:27:50.150Z,90.24
2019-02-08T03:28:54.024Z,90.24
2019-02-08T03:29:58.596Z,90.58
2019-02-08T03:31:01.343Z,91.12
2019-02-08T03:32:04.123Z,91.12
2019-02-08T03:33:09.394Z,91.49
2019-02-08T03:34:12.501Z,91.39
2019-02-08T03:35:18.394Z,91.71
2019-02-08T03:36:21.443Z,91.71
2019-02-08T03:37:24.131Z,91.72
2019-02-08T03:38:26.824Z,91.71
2019-02-08T03:39:29.490Z,91.71
2019-02-08T03:40:32.631Z,92.02
2019-02-08T03:41:35.323Z,92.34
2019-02-08T03:42:39.815Z,92.54
2019-02-08T03:43:44.875Z,92.39
2019-02-08T03:44:47.640Z,92.39
2019-02-08T03:45:53.340Z,92.56
2019-02-08T03:46:56.124Z,92.69
2019-02-08T03:47:59.249Z,93.06
2019-02-08T03:49:02.241Z,92.85
2019-02-08T03:50:04.989Z,92.88
2019-02-08T03:51:07.783Z,92.21
2019-02-08T03:52:10.620Z,92.66
2019-02-08T03:53:13.781Z,92.66
2019-02-08T03:54:21.082Z,92.59
2019-02-08T03:55:21.216Z,92.66
2019-02-08T03:56:25.133Z,92.61
2019-02-08T03:57:29.514Z,92.60
2019-02-08T03:58:32.174Z,92.59
2019-02-08T03:59:37.966Z,92.11
2019-02-08T04:00:48.743Z,92.11
2019-02-08T04:01:51.497Z,92.24
2019-02-08T04:02:54.311Z,92.24
2019-02-08T04:03:59.855Z,91.73
2019-02-08T04:05:02.551Z,92.30
2019-02-08T04:06:08.883Z,91.68
2019-02-08T04:07:11.985Z,91.69
2019-02-08T04:08:14.677Z,91.66
2019-02-08T04:09:17.349Z,91.66
2019-02-08T04:10:21.901Z,91.83
2019-02-08T04:11:24.657Z,91.89
2019-02-08T04:12:27.381Z,91.89
2019-02-08T04:13:31.744Z,91.28
2019-02-08T04:14:34.528Z,91.22
2019-02-08T04:15:37.408Z,91.40
2019-02-08T04:16:40.118Z,91.45
2019-02-08T04:17:47.859Z,92.02
2019-02-08T04:18:50.678Z,91.65
2019-02-08T04:19:53.743Z,91.37
2019-02-08T04:20:56.713Z,91.59
2019-02-08T04:21:59.413Z,91.59
2019-02-08T04:23:02.540Z,91.41
2019-02-08T04:24:05.255Z,91.55
2019-02-08T04:25:10.257Z,91.19
2019-02-08T04:26:13.272Z,91.05
2019-02-08T04:27:17.971Z,90.54
2019-02-08T04:28:20.731Z,90.67
2019-02-08T04:29:23.531Z,90.69
2019-02-08T04:30:26.218Z,90.73
2019-02-08T04:31:30.960Z,91.02
2019-02-08T04:32:34.290Z,91.18
2019-02-08T04:33:40.223Z,90.83
2019-02-08T04:34:43.089Z,90.84
2019-02-08T04:35:45.962Z,90.84
2019-02-08T04:36:48.678Z,90.59
2019-02-08T04:37:52.025Z,90.40
2019-02-08T04:38:55.220Z,90.66
2019-02-08T04:40:00.301Z,90.27
2019-02-08T04:41:03.046Z,90.27
2019-02-08T04:42:07.454Z,90.31
2019-02-08T04:43:10.311Z,90.50
2019-02-08T04:44:15.871Z,90.62
2019-02-08T04:45:19.004Z,90.67
2019-02-08T04:46:22.231Z,90.39
2019-02-08T04:47:25.492Z,90.63
2019-02-08T04:48:28.240Z,90.63
2019-02-08T04:49:33.014Z,90.26
2019-02-08T04:50:35.796Z,90.26
2019-02-08T04:51:39.859Z,90.42
2019-02-08T04:52:42.866Z,90.54
2019-02-08T04:53:46.320Z,90.54
2019-02-08T04:54:52.227Z,90.46
2019-02-08T04:55:59.121Z,90.26
2019-02-08T04:56:59.427Z,90.26
2019-02-08T04:58:02.480Z,90.45
2019-02-08T04:59:05.260Z,90.52
2019-02-08T05:00:08.455Z,90.09
2019-02-08T05:01:12.805Z,90.42
2019-02-08T05:02:15.688Z,90.42
2019-02-08T05:03:20.005Z,90.49
2019-02-08T05:04:23.207Z,90.25
2019-02-08T05:05:29.297Z,90.25
2019-02-08T05:06:33.457Z,89.78
2019-02-08T05:07:36.837Z,90.23
2019-02-08T05:08:41.106Z,90.21
2019-02-08T05:09:45.354Z,90.21
2019-02-08T05:10:48.742Z,90.42
2019-02-08T05:11:51.449Z,90.23
2019-02-08T05:12:54.191Z,90.07
2019-02-08T05:13:56.891Z,90.34
2019-02-08T05:14:59.547Z,89.46
2019-02-08T05:16:02.503Z,89.83
2019-02-08T05:17:08.477Z,89.75
2019-02-08T05:18:11.203Z,90.15
2019-02-08T05:19:16.143Z,90.15
2019-02-08T05:20:22.043Z,89.73
2019-02-08T05:21:24.924Z,90.03
2019-02-08T05:22:28.071Z,90.03
2019-02-08T05:23:31.210Z,89.51
2019-02-08T05:24:33.936Z,89.83
2019-02-08T05:25:37.599Z,90.09
2019-02-08T05:26:41.569Z,90.09
2019-02-08T05:27:49.472Z,89.96
2019-02-08T05:28:52.455Z,89.98
2019-02-08T05:29:55.612Z,90.24
2019-02-08T05:30:58.785Z,90.24
2019-02-08T05:32:01.538Z,90.06
2019-02-08T05:33:04.277Z,89.66
2019-02-08T05:34:09.822Z,90.05
2019-02-08T05:35:12.526Z,90.02
2019-02-08T05:36:15.815Z,90.61
2019-02-08T05:37:19.348Z,90.26
2019-02-08T05:38:22.049Z,90.29
2019-02-08T05:39:24.785Z,89.92
2019-02-08T05:40:27.561Z,90.00
2019-02-08T05:41:30.637Z,90.15
2019-02-08T05:42:33.764Z,90.34
2019-02-08T05:43:36.702Z,90.21
2019-02-08T05:44:39.410Z,90.20
2019-02-08T05:45:42.177Z,90.20
2019-02-08T05:46:44.885Z,90.28
2019-02-08T05:47:47.603Z,90.76
2019-02-08T05:48:50.780Z,90.31
2019-02-08T05:49:53.443Z,90.22
2019-02-08T05:51:02.190Z,89.99
2019-02-08T05:52:07.543Z,90.31
2019-02-08T05:53:10.364Z,90.31
2019-02-08T05:54:13.542Z,90.17
2019-02-08T05:55:16.270Z,90.17
2019-02-08T05:56:19.519Z,90.32
2019-02-08T05:57:22.310Z,90.48
2019-02-08T05:58:25.375Z,89.75
2019-02-08T05:59:28.430Z,90.20
2019-02-08T06:00:48.767Z,90.39
2019-02-08T06:01:51.482Z,90.20
2019-02-08T06:02:54.365Z,90.38
2019-02-08T06:03:57.166Z,90.63
2019-02-08T06:04:59.967Z,90.62
2019-02-08T06:06:02.806Z,90.75
2019-02-08T06:07:05.918Z,90.63
2019-02-08T06:08:08.691Z,90.18
2019-02-08T06:09:12.681Z,90.12
2019-02-08T06:10:15.423Z,90.02
2019-02-08T06:11:18.308Z,89.96
2019-02-08T06:12:21.501Z,90.17
2019-02-08T06:13:24.212Z,89.88
2019-02-08T06:14:27.170Z,89.98
2019-02-08T06:15:32.748Z,89.89
2019-02-08T06:16:35.623Z,89.89
2019-02-08T06:17:38.296Z,90.20
2019-02-08T06:18:41.713Z,90.40
2019-02-08T06:19:44.392Z,90.03
2019-02-08T06:20:47.405Z,90.34
2019-02-08T06:21:50.279Z,90.54
2019-02-08T06:22:52.956Z,90.07
2019-02-08T06:23:55.699Z,90.07
2019-02-08T06:25:03.787Z,90.02
2019-02-08T06:26:05.478Z,89.82
2019-02-08T06:27:10.458Z,90.29
2019-02-08T06:28:13.242Z,90.36
2019-02-08T06:29:16.547Z,89.85
2019-02-08T06:44:01.431Z,89.85
2019-02-08T06:45:04.538Z,89.71
2019-02-08T06:46:08.587Z,89.63
2019-02-08T06:47:11.324Z,89.47
2019-02-08T06:48:14.299Z,89.46
2019-02-08T06:49:17.427Z,89.41
2019-02-08T06:50:20.569Z,89.61
2019-02-08T06:51:23.435Z,89.63
2019-02-08T06:52:29.274Z,89.32
2019-02-08T06:53:32.123Z,89.84
2019-02-08T06:54:34.985Z,89.70
2019-02-08T06:55:42.440Z,89.34
2019-02-08T06:57:15.984Z,89.57
2019-02-08T06:58:35.967Z,89.44
2019-02-08T06:59:55.330Z,89.22
2019-02-08T07:01:20.404Z,89.13
2019-02-08T07:02:42.796Z,89.13
2019-02-08T07:03:58.480Z,89.09
2019-02-08T07:05:18.676Z,89.17
2019-02-08T07:06:49.587Z,89.56
2019-02-08T07:08:11.452Z,89.58
2019-02-08T07:09:35.703Z,89.28
2019-02-08T07:10:57.351Z,89.28
2019-02-08T07:12:24.806Z,89.33
2019-02-08T07:13:46.525Z,89.24
2019-02-08T07:15:08.200Z,88.97
2019-02-08T07:16:29.823Z,89.17
2019-02-08T07:17:49.779Z,89.17
2019-02-08T07:19:12.576Z,88.72
2019-02-08T07:20:40.216Z,88.87
2019-02-08T07:21:59.235Z,88.30
2019-02-08T07:23:27.315Z,88.49
2019-02-08T07:24:41.115Z,88.49
2019-02-08T07:26:01.296Z,88.16
2019-02-08T07:27:23.023Z,88.33
2019-02-08T07:28:50.837Z,88.32
2019-02-08T07:30:08.079Z,87.70
2019-02-08T07:31:26.452Z,88.00
2019-02-08T07:32:39.115Z,88.27
2019-02-08T07:34:19.130Z,87.90
2019-02-08T07:35:38.134Z,87.89
2019-02-08T07:36:58.392Z,88.23
2019-02-08T07:38:37.903Z,87.83
2019-02-08T07:39:58.693Z,87.72
2019-02-08T07:41:18.639Z,87.39
2019-02-08T07:42:55.418Z,87.30
2019-02-08T07:44:25.789Z,87.17
2019-02-08T07:45:47.809Z,87.27
2019-02-08T07:47:19.719Z,87.19
2019-02-08T07:48:51.937Z,87.20
2019-02-08T07:50:22.282Z,87.40
2019-02-08T07:51:49.949Z,87.40
2019-02-08T07:53:26.446Z,87.50
2019-02-08T07:54:50.948Z,87.49
2019-02-08T07:56:13.936Z,87.04
2019-02-08T07:57:37.096Z,87.41
2019-02-08T07:59:04.719Z,87.71
2019-02-08T08:00:44.341Z,88.00
2019-02-08T08:02:02.233Z,87.59
2019-02-08T08:03:22.808Z,87.52
2019-02-08T08:04:42.788Z,87.62
2019-02-08T08:06:18.972Z,87.62
2019-02-08T08:07:46.590Z,88.08
2019-02-08T08:09:14.876Z,88.12
2019-02-08T08:10:46.756Z,87.42
2019-02-08T08:12:01.347Z,87.98
2019-02-08T08:13:44.042Z,88.13
2019-02-08T08:15:04.605Z,87.84
2019-02-08T08:16:24.499Z,87.88
2019-02-08T08:17:50.037Z,88.36
2019-02-08T08:19:23.663Z,88.16
2019-02-08T08:20:37.464Z,88.44
2019-02-08T08:21:55.856Z,88.31
2019-02-08T08:23:16.525Z,88.34
2019-02-08T08:24:34.661Z,88.36
2019-02-08T08:26:02.486Z,88.46
2019-02-08T08:27:27.070Z,88.12
2019-02-08T08:28:51.734Z,88.12
2019-02-08T08:30:19.905Z,86.56
2019-02-08T08:31:27.342Z,85.22
2019-02-08T08:32:58.131Z,85.40
2019-02-08T08:34:01.031Z,85.04
2019-02-08T08:35:03.997Z,100.00
2019-02-08T08:36:06.899Z,100.00
2019-02-08T08:37:09.596Z,84.95
2019-02-08T08:38:15.934Z,86.75
2019-02-08T08:39:18.796Z,86.75
2019-02-08T08:40:23.854Z,87.67
2019-02-08T08:41:26.717Z,87.67
2019-02-08T08:42:29.467Z,87.73
2019-02-08T08:43:32.182Z,88.26
2019-02-08T08:44:35.306Z,87.65
2019-02-08T08:45:43.520Z,87.98
2019-02-08T08:46:46.931Z,87.69
2019-02-08T08:47:49.719Z,88.14
2019-02-08T08:48:52.471Z,88.45
2019-02-08T08:49:55.261Z,88.18
2019-02-08T08:51:01.542Z,88.63
2019-02-08T08:52:04.344Z,88.63
2019-02-08T08:53:07.094Z,88.87
2019-02-08T08:54:12.138Z,88.93
2019-02-08T08:55:17.396Z,89.30
2019-02-08T08:56:20.379Z,89.23
2019-02-08T08:57:23.454Z,89.23
2019-02-08T08:58:26.365Z,89.28
2019-02-08T08:59:29.487Z,89.74
2019-02-08T09:00:39.800Z,89.72
2019-02-08T09:01:42.651Z,89.27
2019-02-08T09:02:46.183Z,89.47
2019-02-08T09:03:50.738Z,90.06
2019-02-08T09:04:53.466Z,89.89
2019-02-08T09:05:56.221Z,89.89
2019-02-08T09:07:01.036Z,88.44
2019-02-08T09:08:03.791Z,100.00
2019-02-08T09:23:42.277Z,90.08
2019-02-08T09:24:45.423Z,90.24
2019-02-08T09:25:49.936Z,89.93
2019-02-08T09:26:52.890Z,90.15
2019-02-08T09:27:55.816Z,90.24
2019-02-08T09:28:58.970Z,90.65
2019-02-08T09:30:01.987Z,90.40
2019-02-08T09:31:06.847Z,90.96
2019-02-08T09:32:10.157Z,90.57
2019-02-08T09:33:14.261Z,90.75
2019-02-08T09:34:17.144Z,90.74
2019-02-08T09:35:26.360Z,90.74
2019-02-08T09:36:32.372Z,90.84
2019-02-08T09:37:35.262Z,91.08
2019-02-08T09:38:40.444Z,91.08
2019-02-08T09:39:46.175Z,91.08
2019-02-08T09:40:50.829Z,91.31
2019-02-08T09:41:54.080Z,91.31
2019-02-08T09:42:56.774Z,91.27
2019-02-08T09:44:02.022Z,91.58
2019-02-08T09:45:04.839Z,91.84
2019-02-08T09:46:11.069Z,91.84
2019-02-08T09:47:14.068Z,91.64
2019-02-08T09:48:22.329Z,91.58
2019-02-08T09:49:25.635Z,91.79
2019-02-08T09:50:28.581Z,91.81
2019-02-08T09:51:37.633Z,91.65
2019-02-08T09:52:40.696Z,91.92
2019-02-08T09:53:43.813Z,91.47
2019-02-08T09:54:48.268Z,91.47
2019-02-08T09:55:58.023Z,91.78
2019-02-08T09:56:57.872Z,91.76
2019-02-08T09:58:00.475Z,91.79
2019-02-08T09:59:04.288Z,92.11
2019-02-08T10:00:07.244Z,91.67
2019-02-08T10:01:10.506Z,91.73
2019-02-08T10:02:13.263Z,91.70
2019-02-08T10:03:18.434Z,91.70
2019-02-08T10:04:24.883Z,92.22
2019-02-08T10:05:27.748Z,91.96
2019-02-08T10:06:32.850Z,91.87
2019-02-08T10:07:35.958Z,91.83
2019-02-08T10:08:39.207Z,91.48
2019-02-08T10:09:42.527Z,91.57
2019-02-08T10:10:45.286Z,92.30
2019-02-08T10:11:48.996Z,91.84
2019-02-08T10:12:51.915Z,92.34
2019-02-08T10:13:55.212Z,92.05
2019-02-08T10:15:04.203Z,92.06
2019-02-08T10:16:09.859Z,92.06
2019-02-08T10:17:13.576Z,91.49
2019-02-08T10:18:17.747Z,91.51
2019-02-08T10:19:20.518Z,91.58
2019-02-08T10:20:26.905Z,91.52
2019-02-08T10:21:29.662Z,92.11
2019-02-08T10:22:32.407Z,91.89
2019-02-08T10:23:35.472Z,91.89
2019-02-08T10:24:43.139Z,92.06
2019-02-08T10:25:47.795Z,92.09
2019-02-08T10:26:52.535Z,91.64
2019-02-08T10:27:55.403Z,92.05
2019-02-08T10:28:58.134Z,92.02
2019-02-08T10:30:01.759Z,92.02
2019-02-08T10:31:04.630Z,91.50
2019-02-08T10:32:07.736Z,91.73
2019-02-08T10:33:11.111Z,92.03
2019-02-08T10:34:14.213Z,92.03
2019-02-08T10:35:21.919Z,91.65
2019-02-08T10:36:24.674Z,91.53
2019-02-08T10:37:27.859Z,91.58
2019-02-08T10:38:33.630Z,91.79
2019-02-08T10:39:36.723Z,91.47
2019-02-08T10:40:39.509Z,91.52
2019-02-08T10:41:43.589Z,91.63
2019-02-08T10:42:50.137Z,91.63
2019-02-08T10:43:53.356Z,91.75
2019-02-08T10:44:56.316Z,91.52
2019-02-08T10:46:01.242Z,91.93
2019-02-08T10:47:04.000Z,91.77
2019-02-08T10:48:06.807Z,91.62
2019-02-08T10:49:10.166Z,91.57
2019-02-08T10:50:15.263Z,91.57
2019-02-08T10:51:20.536Z,91.21
2019-02-08T10:52:24.745Z,91.11
2019-02-08T10:53:27.582Z,90.83
2019-02-08T10:54:30.833Z,90.83
2019-02-08T10:55:33.672Z,91.04
2019-02-08T10:56:36.411Z,91.04
2019-02-08T10:57:39.112Z,90.87
2019-02-08T10:58:41.910Z,91.22
2019-02-08T10:59:51.101Z,90.72
2019-02-08T11:00:53.866Z,91.00
2019-02-08T11:01:56.673Z,90.99
2019-02-08T11:02:59.350Z,91.04
2019-02-08T11:04:04.673Z,91.35
2019-02-08T11:05:07.975Z,91.09
2019-02-08T11:06:10.866Z,91.12
2019-02-08T11:07:13.600Z,91.12
2019-02-08T11:08:16.292Z,90.71
2019-02-08T11:09:20.842Z,90.68
2019-02-08T11:10:24.217Z,90.66
2019-02-08T11:11:29.699Z,90.66
2019-02-08T11:12:32.436Z,90.72
2019-02-08T11:13:35.181Z,90.51
2019-02-08T11:14:37.918Z,90.51
2019-02-08T11:15:40.695Z,90.39
2019-02-08T11:16:44.259Z,90.34
2019-02-08T11:17:47.023Z,90.43
2019-02-08T11:18:49.734Z,90.54
2019-02-08T11:19:54.262Z,90.05
2019-02-08T11:20:59.821Z,90.05
2019-02-08T11:22:05.839Z,90.19
2019-02-08T11:23:08.898Z,90.21
2019-02-08T11:24:11.659Z,89.97
2019-02-08T11:25:14.404Z,90.23
2019-02-08T11:26:22.482Z,90.11
2019-02-08T11:27:21.720Z,90.11
2019-02-08T11:28:24.418Z,89.93
2019-02-08T11:29:29.713Z,89.93
2019-02-08T11:42:55.153Z,89.04
2019-02-08T11:43:58.380Z,88.98
2019-02-08T11:45:03.967Z,88.68
2019-02-08T11:46:06.875Z,89.07
2019-02-08T11:47:09.767Z,0.00
2019-02-08T11:48:20.949Z,0.00
2019-02-08T11:49:21.098Z,84.96
2019-02-08T11:50:26.223Z,84.92
2019-02-08T11:51:30.327Z,84.92
2019-02-08T11:52:33.252Z,100.00
2019-02-08T11:53:39.549Z,86.31
2019-02-08T11:54:50.009Z,86.31
2019-02-08T11:55:52.736Z,88.37
2019-02-08T11:56:57.321Z,88.40
2019-02-08T11:58:03.315Z,88.34
2019-02-08T11:59:09.965Z,88.34
2019-02-08T12:00:13.219Z,88.59
2019-02-08T12:01:17.264Z,88.54
2019-02-08T12:02:20.116Z,88.70
2019-02-08T12:03:24.407Z,88.54
2019-02-08T12:04:27.144Z,88.88
2019-02-08T12:05:29.903Z,88.88
2019-02-08T12:06:33.060Z,88.84
2019-02-08T12:07:35.836Z,88.71
2019-02-08T12:08:38.638Z,88.48
2019-02-08T12:09:42.759Z,89.02
2019-02-08T12:10:45.856Z,88.54
2019-02-08T12:11:52.784Z,88.65
2019-02-08T12:13:05.817Z,88.65
2019-02-08T12:14:08.860Z,88.68
2019-02-08T12:15:13.860Z,88.35
2019-02-08T12:16:19.204Z,88.27
2019-02-08T12:17:21.938Z,88.40
2019-02-08T12:18:26.918Z,88.36
2019-02-08T12:19:33.265Z,88.50
2019-02-08T12:20:37.171Z,88.81
2019-02-08T12:21:40.032Z,88.81
2019-02-08T12:22:42.752Z,88.92
2019-02-08T12:23:45.650Z,88.41
2019-02-08T12:24:52.546Z,88.73
2019-02-08T12:25:59.994Z,88.52
2019-02-08T12:27:02.785Z,88.44
2019-02-08T12:28:08.142Z,88.62
2019-02-08T12:29:10.994Z,88.42
2019-02-08T12:30:14.050Z,88.59
2019-02-08T12:31:19.584Z,88.81
2019-02-08T12:32:22.780Z,88.77
2019-02-08T12:33:29.336Z,88.51
2019-02-08T12:34:32.207Z,88.59
2019-02-08T12:35:37.046Z,88.59
2019-02-08T12:36:39.733Z,88.72
2019-02-08T12:37:42.523Z,88.62
2019-02-08T12:38:45.787Z,89.08
2019-02-08T12:39:49.074Z,88.59
2019-02-08T12:40:53.554Z,88.84
2019-02-08T12:41:56.376Z,88.66
2019-02-08T12:43:00.466Z,88.76
2019-02-08T12:44:03.215Z,89.43
2019-02-08T12:45:09.208Z,89.21
2019-02-08T12:46:11.928Z,89.16
2019-02-08T12:47:14.854Z,89.42
2019-02-08T12:48:17.584Z,89.60
2019-02-08T12:49:20.430Z,89.42
2019-02-08T12:50:26.138Z,89.67
2019-02-08T12:51:48.079Z,89.84
2019-02-08T12:52:51.917Z,89.85
2019-02-08T12:53:54.832Z,89.89
2019-02-08T12:54:58.246Z,89.92
2019-02-08T12:56:00.984Z,89.99
2019-02-08T12:57:03.835Z,89.79
2019-02-08T12:58:07.277Z,89.79
2019-02-08T12:59:13.439Z,90.09
2019-02-08T13:00:16.156Z,90.14
2019-02-08T13:01:21.612Z,90.29
2019-02-08T13:02:27.448Z,90.46
2019-02-08T13:03:30.486Z,90.51
2019-02-08T13:04:35.447Z,90.51
2019-02-08T13:05:38.153Z,90.84
2019-02-08T13:06:41.881Z,90.89
2019-02-08T13:07:44.848Z,91.05
2019-02-08T13:08:47.642Z,90.99
2019-02-08T13:09:50.557Z,90.99
2019-02-08T13:10:54.992Z,90.84
2019-02-08T13:12:05.547Z,91.15
2019-02-08T13:13:15.353Z,91.15
2019-02-08T13:14:18.274Z,91.12
2019-02-08T13:15:23.472Z,91.12
2019-02-08T13:16:29.165Z,91.76
2019-02-08T13:17:33.002Z,91.76
2019-02-08T13:18:37.044Z,91.73
2019-02-08T13:19:41.698Z,91.50
2019-02-08T13:20:46.340Z,91.54
2019-02-08T13:21:49.387Z,91.27
2019-02-08T13:22:52.239Z,90.94
2019-02-08T13:23:55.371Z,90.92
2019-02-08T13:24:58.167Z,90.91
2019-02-08T13:26:01.053Z,91.16
2019-02-08T13:27:05.834Z,91.34
2019-02-08T13:28:12.467Z,92.10
2019-02-08T13:29:23.121Z,91.86
2019-02-08T13:30:32.207Z,91.32
2019-02-08T13:31:35.398Z,91.63
2019-02-08T13:32:38.293Z,91.98
2019-02-08T13:33:42.248Z,92.16
2019-02-08T13:34:45.154Z,92.35
2019-02-08T13:35:50.225Z,92.53
2019-02-08T13:36:53.637Z,92.60
2019-02-08T13:37:56.671Z,92.39
2019-02-08T13:39:00.028Z,92.72
2019-02-08T13:40:04.474Z,92.72
2019-02-08T13:41:07.269Z,92.24
2019-02-08T13:42:10.346Z,92.24
2019-02-08T13:43:13.793Z,92.38
2019-02-08T13:44:16.858Z,92.38
2019-02-08T13:45:19.742Z,92.45
2019-02-08T13:46:22.520Z,92.67
2019-02-08T13:47:25.410Z,92.67
2019-02-08T13:48:28.275Z,92.25
2019-02-08T13:49:31.866Z,92.34
2019-02-08T13:50:36.842Z,92.45
2019-02-08T13:51:39.609Z,92.45
2019-02-08T13:52:44.175Z,92.67
2019-02-08T13:53:47.662Z,92.50
2019-02-08T13:54:52.438Z,92.60
2019-02-08T13:56:04.138Z,92.51
2019-02-08T13:57:07.086Z,92.60
2019-02-08T13:58:10.229Z,92.83
2019-02-08T13:59:13.273Z,92.33
2019-02-08T14:00:16.188Z,92.47
2019-02-08T14:01:24.096Z,91.95
2019-02-08T14:02:27.573Z,92.37
2019-02-08T14:03:30.453Z,92.64
2019-02-08T14:04:40.262Z,92.64
2019-02-08T14:05:43.201Z,92.16
2019-02-08T14:06:46.148Z,92.51
2019-02-08T14:07:50.190Z,92.51
2019-02-08T14:08:55.786Z,92.51
2019-02-08T14:09:58.836Z,92.56
2019-02-08T14:11:03.827Z,92.56
2019-02-08T14:12:09.588Z,92.69
2019-02-08T14:13:20.017Z,92.43
2019-02-08T14:14:25.735Z,92.33
2019-02-08T14:15:29.479Z,92.69
2019-02-08T14:16:32.614Z,92.59
2019-02-08T14:17:35.929Z,92.37
2019-02-08T14:18:38.723Z,92.67
2019-02-08T14:19:41.433Z,92.67
2019-02-08T14:20:44.224Z,92.75
2019-02-08T14:21:48.497Z,93.00
2019-02-08T14:22:54.345Z,92.63
2019-02-08T14:23:57.772Z,92.42
2019-02-08T14:25:02.866Z,92.21
2019-02-08T14:26:06.003Z,92.75
2019-02-08T14:27:08.934Z,92.46
2019-02-08T14:28:19.197Z,92.46
2019-02-08T14:29:22.415Z,93.11
2019-02-08T14:30:25.350Z,93.11
2019-02-08T14:31:31.027Z,92.93
2019-02-08T14:32:36.604Z,92.96
2019-02-08T14:33:49.430Z,92.99
2019-02-08T14:35:02.213Z,92.99
2019-02-08T14:36:08.311Z,92.80
2019-02-08T14:37:15.575Z,92.80
2019-02-08T14:38:25.687Z,92.22
2019-02-08T14:39:34.320Z,92.73
2019-02-08T14:40:39.153Z,92.99
2019-02-08T14:41:46.646Z,92.19
2019-02-08T14:42:49.350Z,92.19
2019-02-08T14:43:59.823Z,92.04
2019-02-08T14:45:03.279Z,92.43
2019-02-08T14:46:08.160Z,92.55
2019-02-08T14:47:21.256Z,92.58
2019-02-08T14:48:27.909Z,93.02